Time;durP1;ratioP1;P1;durP2;ratioP2;P2;SDS_P1;SDS_P2;PMS_P1;PMS_P2;Temp;Humidity;BMP_temperature;BMP_pressure;BME280_temperature;BME280_humidity;BME280_pressure;Samples;Min_cycle;Max_cycle;Signal;HPM_P1;HPM_P2
2021/12/03 00:00:26;;;;;;;12.45;8.57;;;;;;;-0.31;89.90;101062.75;4988814;28;20464;-68
2021/12/03 00:02:52;;;;;;;13.50;9.98;;;;;;;-0.28;89.92;101054.19;5002903;28;20109;-68
2021/12/03 00:05:17;;;;;;;12.38;9.52;;;;;;;-0.27;90.45;101055.84;4996901;28;20120;-68
2021/12/03 00:07:43;;;;;;;13.52;10.57;;;;;;;-0.28;90.16;101059.28;4990965;28;20467;-68
2021/12/03 00:10:11;;;;;;;15.00;10.70;;;;;;;-0.26;90.42;101052.41;5003935;28;20030;-68
2021/12/03 00:12:38;;;;;;;13.98;10.48;;;;;;;-0.24;90.06;101054.91;5005295;28;20466;-67
2021/12/03 00:15:05;;;;;;;15.82;11.15;;;;;;;-0.25;90.27;101061.72;5001949;28;20545;-68
2021/12/03 00:17:31;;;;;;;17.55;11.90;;;;;;;-0.25;90.46;101060.88;5007028;28;20462;-68
2021/12/03 00:19:56;;;;;;;16.13;11.93;;;;;;;-0.23;90.19;101062.50;5010137;28;20033;-67
2021/12/03 00:22:22;;;;;;;15.82;11.88;;;;;;;-0.22;90.33;101064.16;4997416;28;20057;-68
2021/12/03 00:24:48;;;;;;;16.00;11.52;;;;;;;-0.21;90.54;101065.84;5007241;28;20034;-68
2021/12/03 00:27:13;;;;;;;17.95;12.52;;;;;;;-0.19;90.47;101064.06;4999540;28;20394;-67
2021/12/03 00:29:38;;;;;;;17.58;13.13;;;;;;;-0.21;90.51;101065.84;4980945;28;20506;-69
2021/12/03 00:32:04;;;;;;;18.20;12.18;;;;;;;-0.19;90.63;101064.06;4990972;28;20530;-68
2021/12/03 00:34:29;;;;;;;17.65;12.10;;;;;;;-0.20;90.55;101067.50;5009735;28;20068;-68
2021/12/03 00:36:55;;;;;;;15.13;11.77;;;;;;;-0.18;90.31;101075.91;4995762;28;20138;-68
2021/12/03 00:39:21;;;;;;;17.65;12.20;;;;;;;-0.24;90.50;101060.81;5001535;28;20370;-68
2021/12/03 00:41:49;;;;;;;14.82;12.32;;;;;;;-0.22;90.42;101066.72;4993347;28;20041;-68
2021/12/03 00:44:14;;;;;;;17.17;12.00;;;;;;;-0.19;90.88;101066.59;5005225;28;20026;-68
2021/12/03 00:46:40;;;;;;;16.58;12.15;;;;;;;-0.22;90.31;101064.16;4996420;28;20500;-67
2021/12/03 00:49:05;;;;;;;15.00;11.65;;;;;;;-0.20;90.49;101077.69;4988551;28;20071;-68
2021/12/03 00:51:31;;;;;;;17.52;12.57;;;;;;;-0.19;90.21;101073.41;5004847;28;20078;-68
2021/12/03 00:53:56;;;;;;;16.88;12.57;;;;;;;-0.25;90.72;101064.25;4994654;28;20061;-67
2021/12/03 00:56:22;;;;;;;20.83;13.00;;;;;;;-0.21;90.55;101070.94;4999994;28;20465;-68
2021/12/03 00:58:48;;;;;;;19.17;13.75;;;;;;;-0.23;90.89;101077.81;5000205;28;20529;-68
2021/12/03 01:01:15;;;;;;;16.90;13.25;;;;;;;-0.21;90.70;101076.03;5007892;28;20088;-68
2021/12/03 01:03:40;;;;;;;19.83;14.10;;;;;;;-0.20;90.92;101087.06;4994796;28;20061;-68
2021/12/03 01:06:06;;;;;;;18.10;13.57;;;;;;;-0.23;90.58;101077.81;5004555;28;20393;-68
2021/12/03 01:08:35;;;;;;;18.92;14.55;;;;;;;-0.21;90.80;101081.13;4987480;28;20474;-68
2021/12/03 01:11:01;;;;;;;18.67;14.23;;;;;;;-0.20;90.78;101080.25;5012585;28;20029;-68
2021/12/03 01:13:26;;;;;;;17.80;14.35;;;;;;;-0.23;90.75;101077.81;5012356;28;20029;-68
2021/12/03 01:15:51;;;;;;;21.13;15.07;;;;;;;-0.21;90.84;101083.69;4997634;28;20466;-68
2021/12/03 01:18:17;;;;;;;19.17;15.00;;;;;;;-0.25;91.10;101084.66;5007441;28;20033;-67
2021/12/03 01:20:43;;;;;;;22.05;15.57;;;;;;;-0.21;90.88;101090.50;5012471;28;20030;-67
2021/12/03 01:23:11;;;;;;;20.58;15.65;;;;;;;-0.24;90.85;101096.50;5001168;28;20048;-68
2021/12/03 01:25:37;;;;;;;20.15;15.32;;;;;;;-0.23;90.83;101093.09;4999432;28;20337;-68
2021/12/03 01:28:03;;;;;;;21.67;15.40;;;;;;;-0.22;90.99;101094.75;4992730;28;20030;-68
2021/12/03 01:30:30;;;;;;;21.38;16.02;;;;;;;-0.22;90.80;101094.75;4999246;28;20120;-67
2021/12/03 01:32:57;;;;;;;23.85;17.50;;;;;;;-0.23;90.78;101088.00;5008436;28;20037;-68
2021/12/03 01:35:22;;;;;;;22.98;16.67;;;;;;;-0.20;90.96;101094.69;4995267;28;20468;-67
2021/12/03 01:37:48;;;;;;;23.38;17.63;;;;;;;-0.21;90.92;101093.88;5009109;28;20030;-68
2021/12/03 01:40:18;;;;;;;23.63;17.92;;;;;;;-0.23;91.33;101093.09;5003910;28;20038;-68
2021/12/03 01:42:44;;;;;;;22.92;18.58;;;;;;;-0.23;91.32;101089.69;5008931;28;20022;-67
2021/12/03 01:45:14;;;;;;;26.02;18.95;;;;;;;-0.28;91.56;101079.66;5007138;28;20114;-67
2021/12/03 01:47:44;;;;;;;26.17;18.67;;;;;;;-0.25;91.11;101079.56;4986150;28;20073;-68
2021/12/03 01:50:10;;;;;;;26.55;20.65;;;;;;;-0.22;91.42;101079.47;5002094;28;20120;-68
2021/12/03 01:52:36;;;;;;;27.30;19.50;;;;;;;-0.22;91.61;101069.28;5000131;28;20042;-67
2021/12/03 01:55:04;;;;;;;25.80;20.13;;;;;;;-0.23;91.49;101061.66;5000570;28;20035;-68
2021/12/03 01:57:29;;;;;;;24.67;20.08;;;;;;;-0.24;91.42;101060.81;4998695;28;20254;-68
2021/12/03 01:59:54;;;;;;;25.73;20.83;;;;;;;-0.21;91.53;101070.94;5000075;28;20388;-67
2021/12/03 02:02:20;;;;;;;28.73;21.45;;;;;;;-0.19;91.69;101079.34;5010675;28;20473;-68
2021/12/03 02:04:45;;;;;;;28.17;20.77;;;;;;;-0.18;91.54;101085.28;4993016;28;20034;-68
2021/12/03 02:07:10;;;;;;;25.35;20.80;;;;;;;-0.18;91.59;101072.53;5021670;28;20068;-68
2021/12/03 02:09:36;;;;;;;24.92;21.15;;;;;;;-0.18;91.64;101075.91;5018833;28;20022;-68
2021/12/03 02:12:02;;;;;;;29.48;22.90;;;;;;;-0.19;91.78;101069.16;5002930;28;20030;-68
2021/12/03 02:14:27;;;;;;;28.42;21.23;;;;;;;-0.18;91.50;101081.00;5001115;28;20045;-68
2021/12/03 02:16:52;;;;;;;29.80;23.50;;;;;;;-0.18;91.83;101086.09;4984300;28;20038;-68
2021/12/03 02:19:18;;;;;;;30.65;23.85;;;;;;;-0.18;91.93;101096.31;4996323;28;20037;-67
2021/12/03 02:21:44;;;;;;;29.60;23.17;;;;;;;-0.20;91.95;101082.78;5010883;28;20394;-68
2021/12/03 02:24:10;;;;;;;29.00;23.65;;;;;;;-0.20;91.97;101077.69;4991693;28;20060;-67
2021/12/03 02:26:35;;;;;;;29.92;24.52;;;;;;;-0.17;91.94;101074.19;5004239;28;20065;-68
2021/12/03 02:29:01;;;;;;;30.55;24.88;;;;;;;-0.18;91.90;101075.91;5011382;28;20139;-68
2021/12/03 02:31:26;;;;;;;36.38;27.88;;;;;;;-0.18;91.86;101073.34;5010902;28;20478;-68
2021/12/03 02:33:54;;;;;;;41.53;29.10;;;;;;;-0.19;91.90;101074.25;5011785;28;20033;-67
2021/12/03 02:36:19;;;;;;;43.83;33.45;;;;;;;-0.21;92.19;101060.72;5008676;28;20504;-68
2021/12/03 02:38:45;;;;;;;44.10;32.10;;;;;;;-0.21;92.40;101065.84;4993151;28;20129;-67
2021/12/03 02:41:12;;;;;;;46.88;34.67;;;;;;;-0.20;92.04;101067.50;5008829;28;20057;-67
2021/12/03 02:43:38;;;;;;;47.67;35.55;;;;;;;-0.20;92.16;101061.56;5009086;28;20485;-67
2021/12/03 02:46:03;;;;;;;50.15;37.45;;;;;;;-0.21;92.50;101055.63;5008161;28;20132;-67
2021/12/03 02:48:31;;;;;;;52.20;38.47;;;;;;;-0.19;92.83;101068.31;4993895;28;20026;-67
2021/12/03 02:50:58;;;;;;;52.90;38.38;;;;;;;-0.21;92.45;101057.34;4984406;28;20025;-68
2021/12/03 02:53:23;;;;;;;57.78;39.33;;;;;;;-0.21;92.24;101070.09;4993627;28;20117;-68
2021/12/03 02:55:49;;;;;;;59.13;39.13;;;;;;;-0.18;92.64;101080.19;5002169;28;20461;-67
2021/12/03 02:58:15;;;;;;;66.18;41.17;;;;;;;-0.22;92.81;101071.81;5007044;28;20030;-67
2021/12/03 03:00:42;;;;;;;66.75;41.22;;;;;;;-0.20;92.96;101072.59;5006038;28;20080;-67
2021/12/03 03:03:08;;;;;;;69.55;43.55;;;;;;;-0.19;93.09;101069.16;4998634;28;20041;-67
2021/12/03 03:05:34;;;;;;;73.63;43.85;;;;;;;-0.19;93.03;101063.22;5011737;28;20647;-67
2021/12/03 03:07:59;;;;;;;79.53;47.25;;;;;;;-0.20;92.84;101067.50;4997713;28;20056;-67
2021/12/03 03:10:30;;;;;;;81.43;46.15;;;;;;;-0.15;93.12;101070.72;5010957;28;20021;-67
2021/12/03 03:12:57;;;;;;;78.05;47.00;;;;;;;-0.15;93.05;101065.63;5004143;28;20058;-67
2021/12/03 03:15:23;;;;;;;78.95;47.47;;;;;;;-0.17;93.07;101052.13;4988581;28;20030;-67
2021/12/03 03:17:49;;;;;;;87.43;50.03;;;;;;;-0.13;93.08;101053.66;4985187;28;20074;-67
2021/12/03 03:20:15;;;;;;;89.47;50.50;;;;;;;-0.12;93.24;101055.31;4990611;28;20038;-67
2021/12/03 03:22:42;;;;;;;89.82;48.72;;;;;;;-0.10;93.37;101058.66;4987932;28;20081;-67
2021/12/03 03:25:12;;;;;;;96.68;51.72;;;;;;;-0.08;93.39;101061.16;4977583;28;20041;-67
2021/12/03 03:27:39;;;;;;;98.18;52.03;;;;;;;-0.07;93.33;101053.44;4978863;28;20026;-67
2021/12/03 03:30:08;;;;;;;98.97;54.80;;;;;;;-0.06;93.59;101050.03;4991527;28;20026;-67
2021/12/03 03:32:34;;;;;;;95.63;50.83;;;;;;;-0.05;93.56;101046.59;4991354;28;20034;-68
2021/12/03 03:34:59;;;;;;;91.57;54.65;;;;;;;-0.06;93.59;101046.63;4991131;28;20041;-67
2021/12/03 03:37:25;;;;;;;92.60;53.28;;;;;;;-0.07;93.56;101053.44;4991128;28;20041;-67
2021/12/03 03:39:50;;;;;;;87.88;53.67;;;;;;;-0.04;93.54;101058.44;4991456;28;20604;-67
2021/12/03 03:42:16;;;;;;;90.00;54.13;;;;;;;-0.02;93.42;101060.94;4991053;28;20026;-67
2021/12/03 03:44:42;;;;;;;88.38;52.08;;;;;;;-0.03;93.74;101059.28;4989595;28;20533;-67
2021/12/03 03:47:08;;;;;;;86.72;49.72;;;;;;;-0.01;93.47;101057.50;4990989;28;20146;-67
2021/12/03 03:49:34;;;;;;;85.78;52.05;;;;;;;0.01;93.48;101054.91;4978541;28;20093;-67
2021/12/03 03:52:02;;;;;;;88.47;52.22;;;;;;;-0.12;93.27;101040.00;4986793;28;20042;-67
2021/12/03 03:54:27;;;;;;;84.40;50.22;;;;;;;0.02;93.58;101056.59;4978581;28;20041;-67
2021/12/03 03:56:53;;;;;;;82.82;52.22;;;;;;;0.02;93.54;101054.03;4991101;28;20022;-67
2021/12/03 03:59:19;;;;;;;82.28;50.15;;;;;;;-0.04;93.55;101032.97;4985533;28;20093;-68
2021/12/03 04:01:46;;;;;;;80.72;50.50;;;;;;;0.04;93.71;101034.41;4990678;28;20073;-67
2021/12/03 04:04:11;;;;;;;80.75;48.65;;;;;;;0.02;93.69;101026.81;4973341;28;20030;-67
2021/12/03 04:06:37;;;;;;;81.70;51.88;;;;;;;-0.05;93.95;101015.16;4990486;28;20026;-67
2021/12/03 04:09:02;;;;;;;82.90;51.67;;;;;;;0.04;93.38;101029.31;4974201;28;20037;-67
2021/12/03 04:11:27;;;;;;;78.68;49.33;;;;;;;0.01;93.31;101024.31;4991146;28;20030;-67
2021/12/03 04:13:53;;;;;;;79.30;49.97;;;;;;;0.05;93.86;101020.75;4989668;28;20022;-67
2021/12/03 04:16:18;;;;;;;73.28;47.38;;;;;;;0.05;93.39;101015.66;4990092;28;20133;-67
2021/12/03 04:18:44;;;;;;;77.95;49.90;;;;;;;0.02;93.41;101023.44;4990959;28;20434;-67
2021/12/03 04:21:09;;;;;;;76.32;49.08;;;;;;;0.07;93.69;101040.25;4990588;28;20497;-68
2021/12/03 04:23:35;;;;;;;81.90;50.88;;;;;;;0.05;93.40;101023.31;4984151;28;20039;-67
2021/12/03 04:26:01;;;;;;;81.60;50.65;;;;;;;0.05;93.55;101028.41;4993805;28;20034;-67
2021/12/03 04:28:26;;;;;;;93.03;53.28;;;;;;;0.08;93.66;101030.88;4984965;28;20041;-67
2021/12/03 04:30:52;;;;;;;89.93;52.28;;;;;;;0.04;93.56;101025.03;4989781;28;20038;-68
2021/12/03 04:33:19;;;;;;;89.30;53.45;;;;;;;0.07;93.92;101019.00;4992974;28;20041;-67
2021/12/03 04:35:45;;;;;;;90.53;52.00;;;;;;;0.06;93.94;101022.41;4975105;28;20034;-67
2021/12/03 04:38:10;;;;;;;92.72;52.33;;;;;;;0.09;94.12;101027.44;4994286;28;20038;-67
2021/12/03 04:40:37;;;;;;;92.07;54.47;;;;;;;0.09;93.87;101035.09;4980225;28;20113;-67
2021/12/03 04:43:04;;;;;;;89.60;51.33;;;;;;;0.13;93.76;101034.09;4994566;28;20046;-67
2021/12/03 04:45:30;;;;;;;91.80;54.00;;;;;;;0.10;93.82;101039.28;4993367;28;20026;-67
2021/12/03 04:47:57;;;;;;;89.05;50.30;;;;;;;0.14;93.97;101033.22;4992529;28;20488;-67
2021/12/03 04:50:25;;;;;;;92.03;52.35;;;;;;;0.13;93.83;101029.81;4991358;28;20073;-67
2021/12/03 04:52:52;;;;;;;89.78;50.75;;;;;;;0.18;93.97;101024.56;4975151;28;20026;-67
2021/12/03 04:55:18;;;;;;;91.53;54.03;;;;;;;0.16;93.99;101022.06;4991821;28;20023;-67
2021/12/03 04:57:44;;;;;;;100.82;55.83;;;;;;;0.19;93.93;101018.56;4993498;28;20068;-67
2021/12/03 05:00:16;;;;;;;86.45;50.35;;;;;;;0.19;93.94;101021.13;4975240;28;20015;-67
2021/12/03 05:02:42;;;;;;;87.25;53.03;;;;;;;0.22;93.66;101018.44;4992097;28;20044;-67
2021/12/03 05:05:07;;;;;;;83.35;51.80;;;;;;;0.24;94.07;101016.69;4993097;28;20429;-67
2021/12/03 05:10:06;;;;;;;87.05;52.70;;;;;;;0.22;94.11;101013.34;4991392;28;20525;-67
2021/12/03 05:12:33;;;;;;;84.63;51.67;;;;;;;0.24;94.01;101007.31;4992260;28;20033;-67
2021/12/03 05:14:58;;;;;;;79.80;49.80;;;;;;;0.23;93.79;100992.06;4989151;28;20037;-67
2021/12/03 05:17:23;;;;;;;75.60;50.67;;;;;;;0.25;94.10;100993.69;4993202;28;20109;-67
2021/12/03 05:19:50;;;;;;;71.15;47.65;;;;;;;0.28;94.36;100994.44;4979394;28;20101;-68
2021/12/03 05:22:15;;;;;;;69.15;46.70;;;;;;;0.25;93.84;100992.84;4989353;28;20133;-67
2021/12/03 05:24:45;;;;;;;66.93;45.03;;;;;;;0.28;94.02;100990.16;4981545;28;20038;-67
2021/12/03 05:27:16;;;;;;;72.30;44.55;;;;;;;0.27;93.99;100991.06;4989018;28;20034;-67
2021/12/03 05:29:43;;;;;;;60.50;40.55;;;;;;;0.33;94.03;100990.00;4972033;28;20489;-67
2021/12/03 05:32:09;;;;;;;60.40;40.97;;;;;;;0.28;94.13;100997.81;4992228;28;20099;-67
2021/12/03 05:34:38;;;;;;;60.72;39.17;;;;;;;0.34;94.04;100995.03;5000003;28;20027;-67
2021/12/03 05:37:06;;;;;;;53.20;39.15;;;;;;;0.30;94.19;100995.25;4993310;28;20030;-67
2021/12/03 05:39:33;;;;;;;61.27;40.50;;;;;;;0.31;94.01;101002.81;4992215;28;20031;-67
2021/12/03 05:41:58;;;;;;;52.15;36.13;;;;;;;0.32;93.50;100994.28;4993355;28;20277;-67
2021/12/03 05:44:24;;;;;;;47.80;35.42;;;;;;;0.35;94.01;100999.28;4990786;28;20503;-67
2021/12/03 05:46:50;;;;;;;48.17;33.10;;;;;;;0.36;93.80;101006.06;4992761;28;20506;-67
2021/12/03 05:49:15;;;;;;;42.75;31.00;;;;;;;0.35;93.51;100996.75;4977147;28;20108;-67
2021/12/03 05:51:41;;;;;;;43.88;27.77;;;;;;;0.39;93.85;101000.81;4991933;28;20022;-67
2021/12/03 05:54:06;;;;;;;38.50;26.85;;;;;;;0.37;93.59;101000.06;4992248;28;20673;-67
2021/12/03 05:56:32;;;;;;;35.13;25.65;;;;;;;0.40;93.50;100999.09;4992615;28;20517;-67
2021/12/03 05:58:57;;;;;;;36.58;24.50;;;;;;;0.38;93.77;100999.16;4989066;28;20069;-67
2021/12/03 06:01:23;;;;;;;34.40;22.30;;;;;;;0.43;93.50;101012.59;4989047;28;20109;-67
2021/12/03 06:03:48;;;;;;;31.55;20.30;;;;;;;0.43;93.66;101012.59;4991447;28;20041;-67
2021/12/03 06:06:16;;;;;;;30.17;19.45;;;;;;;0.45;93.47;101003.16;4992142;28;20030;-67
2021/12/03 06:08:43;;;;;;;26.85;17.52;;;;;;;0.46;93.39;101004.84;4983801;28;20026;-67
2021/12/03 06:11:08;;;;;;;31.33;18.80;;;;;;;0.46;93.25;101012.50;4984741;28;20125;-67
2021/12/03 06:13:39;;;;;;;28.85;17.90;;;;;;;0.41;92.97;100988.84;4991596;28;20030;-68
2021/12/03 06:16:06;;;;;;;26.98;16.48;;;;;;;0.48;93.03;100989.47;4990250;28;20034;-67
2021/12/03 06:18:31;;;;;;;25.08;15.43;;;;;;;0.50;92.86;100990.22;4973885;28;20026;-67
2021/12/03 06:20:57;;;;;;;26.10;14.65;;;;;;;0.51;92.66;100990.16;4991655;28;20514;-67
2021/12/03 06:23:22;;;;;;;28.42;15.23;;;;;;;0.50;92.61;100993.59;4991187;28;20470;-67
2021/12/03 06:25:47;;;;;;;24.95;13.93;;;;;;;0.47;92.79;100983.53;4988571;28;20557;-67
2021/12/03 06:28:13;;;;;;;24.60;13.18;;;;;;;0.53;92.44;100993.50;4990083;28;20026;-67
2021/12/03 06:30:38;;;;;;;25.75;12.50;;;;;;;0.53;92.21;100985.84;4992516;28;20462;-68
2021/12/03 06:33:05;;;;;;;22.95;11.77;;;;;;;0.57;91.55;100990.81;4990786;28;20026;-67
2021/12/03 06:35:30;;;;;;;22.85;13.13;;;;;;;0.55;91.30;100975.56;4991002;28;20282;-67
2021/12/03 06:37:56;;;;;;;21.13;10.57;;;;;;;0.59;91.15;100981.41;4992307;28;20474;-67
2021/12/03 06:40:25;;;;;;;19.50;11.30;;;;;;;0.59;90.80;100986.50;4987671;28;20026;-67
2021/12/03 06:42:50;;;;;;;22.10;10.80;;;;;;;0.59;90.81;100986.50;4987580;28;20030;-67
2021/12/03 06:45:16;;;;;;;20.35;10.82;;;;;;;0.53;90.74;100978.19;4989525;28;20454;-66
2021/12/03 06:47:42;;;;;;;21.33;10.40;;;;;;;0.57;90.36;100984.00;4990871;28;20464;-67
2021/12/03 06:50:09;;;;;;;23.67;10.10;;;;;;;0.53;90.17;100987.56;4986553;28;20550;-67
2021/12/03 06:52:38;;;;;;;19.85;10.02;;;;;;;0.57;89.88;100990.81;4988384;28;20026;-66
2021/12/03 06:55:05;;;;;;;17.65;9.13;;;;;;;0.55;90.26;100990.88;4991519;28;20109;-67
2021/12/03 06:57:31;;;;;;;17.58;9.65;;;;;;;0.51;90.25;100990.16;4990505;28;20387;-67
2021/12/03 06:59:57;;;;;;;20.85;9.50;;;;;;;0.48;89.35;100989.47;4988596;28;20594;-67
2021/12/03 07:02:22;;;;;;;19.25;9.32;;;;;;;0.49;89.31;100991.94;4991065;28;20026;-66
2021/12/03 07:04:48;;;;;;;17.75;9.63;;;;;;;0.50;89.07;100997.88;4990155;28;20038;-66
2021/12/03 07:07:13;;;;;;;17.80;8.98;;;;;;;0.47;88.79;100983.53;4990637;28;20044;-67
2021/12/03 07:09:39;;;;;;;19.70;9.38;;;;;;;0.47;88.70;100983.53;4990136;28;20026;-67
2021/12/03 07:12:05;;;;;;;15.93;9.10;;;;;;;0.48;88.47;100980.06;4990716;28;20029;-67
2021/12/03 07:14:30;;;;;;;21.52;9.63;;;;;;;0.46;88.25;100978.44;4990543;28;20038;-67
2021/12/03 07:16:58;;;;;;;21.83;9.00;;;;;;;0.47;88.28;100973.31;4990240;28;20046;-66
2021/12/03 07:19:24;;;;;;;17.58;8.32;;;;;;;0.46;88.49;100981.88;4989956;28;20474;-66
2021/12/03 07:21:49;;;;;;;19.63;9.63;;;;;;;0.45;88.29;100980.19;4990319;28;20289;-66
2021/12/03 07:24:14;;;;;;;17.75;9.23;;;;;;;0.42;88.17;100972.66;4988905;28;20121;-66
2021/12/03 07:26:40;;;;;;;19.77;9.48;;;;;;;0.41;88.29;100963.34;4990303;28;20030;-66
2021/12/03 07:29:05;;;;;;;18.35;9.40;;;;;;;0.41;88.31;100963.34;4990470;28;20045;-67
2021/12/03 07:34:53;;;;;;;20.52;9.10;;;;;;;0.43;87.91;100971.75;5228575;23;20053;-66
2021/12/03 07:37:52;;;;;;;19.25;9.25;;;;;;;0.43;88.31;100976.84;4991045;28;20034;-66
2021/12/03 07:43:09;;;;;;;18.77;9.57;;;;;;;0.42;87.92;100967.56;5064781;23;20065;-66
2021/12/03 07:48:27;;;;;;;20.92;9.48;;;;;;;0.43;88.21;100971.75;5008289;28;20520;-68
2021/12/03 07:53:44;;;;;;;19.52;9.15;;;;;;;0.44;87.95;100968.31;4971120;28;20058;-65
2021/12/03 07:59:03;;;;;;;20.98;9.48;;;;;;;0.46;88.12;100970.78;4996695;28;20054;-66
2021/12/03 08:01:29;;;;;;;;;;;;;;;0.51;88.58;100963.81;5153300;23;20055;-68
2021/12/03 08:04:19;;;;;;;17.55;9.40;;;;;;;0.48;88.23;100954.56;4969265;28;20281;-68
2021/12/03 08:09:37;;;;;;;22.50;9.25;;;;;;;0.48;88.05;100958.84;4970517;28;20055;-63
2021/12/03 08:14:55;;;;;;;19.73;8.68;;;;;;;0.49;88.14;100952.84;4983048;28;20049;-63
2021/12/03 08:17:20;;;;;;;19.27;9.20;;;;;;;0.44;88.06;100947.91;5161399;23;20055;-63
2021/12/03 08:20:11;;;;;;;19.25;8.68;;;;;;;0.50;88.38;100970.63;4990752;28;20026;-63
2021/12/03 08:25:30;;;;;;;17.80;8.93;;;;;;;0.51;88.13;100954.44;5123678;23;20501;-66
2021/12/03 08:30:46;;;;;;;22.95;8.48;;;;;;;0.57;88.24;100957.63;5043936;23;20051;-66
2021/12/03 08:33:12;;;;;;;30.30;13.80;;;;;;;0.56;88.44;100955.97;5203328;23;20055;-67
2021/12/03 08:36:05;;;;;;;20.35;8.30;;;;;;;0.61;88.69;100964.31;4983027;28;20026;-66
2021/12/03 08:41:04;;;;;;;21.23;7.90;;;;;;;0.63;88.09;100957.41;4951148;29;20091;-66
2021/12/03 08:43:30;;;;;;;;;;;;;;;0.71;88.23;100956.22;4949408;29;20028;-66
2021/12/03 08:46:31;;;;;;;22.17;7.40;;;;;;;0.69;88.20;100957.16;4952286;29;19918;-66
2021/12/03 08:49:05;;;;;;;22.70;6.68;;;;;;;0.69;88.36;100946.97;4934528;29;20041;-66
2021/12/03 08:56:56;;;;;;;17.23;7.20;;;;;;;0.71;87.90;100937.53;4952341;29;20038;-66
2021/12/03 09:04:28;;;;;;;17.52;6.97;;;;;;;0.76;87.91;100933.09;4948349;28;20055;-63
2021/12/03 09:06:54;;;;;;;20.48;7.22;;;;;;;0.77;88.12;100935.56;4932834;29;20027;-62
2021/12/03 09:09:19;;;;;;;17.10;7.03;;;;;;;0.80;87.87;100939.72;4951475;29;20426;-63
2021/12/03 09:11:44;;;;;;;15.95;6.82;;;;;;;0.84;87.48;100936.16;4932392;29;20044;-63
2021/12/03 09:15:12;;;;;;;15.48;6.22;;;;;;;0.88;87.45;100935.16;4954104;28;20031;-63
2021/12/03 09:22:27;;;;;;;17.80;6.95;;;;;;;0.93;87.59;100920.50;4954561;29;20047;-62
2021/12/03 09:24:54;;;;;;;18.20;6.43;;;;;;;0.93;87.30;100910.28;4955106;29;20375;-62
2021/12/03 09:27:20;;;;;;;17.52;6.75;;;;;;;0.97;87.80;100911.78;4953321;29;20031;-63
2021/12/03 09:29:46;;;;;;;20.42;7.60;;;;;;;0.98;87.24;100923.69;4953880;29;20034;-63
2021/12/03 09:32:20;;;;;;;19.90;6.85;;;;;;;1.01;87.21;100927.81;4952228;29;20066;-63
2021/12/03 09:34:46;;;;;;;20.85;7.10;;;;;;;1.02;86.90;100930.31;4954481;29;20050;-62
2021/12/03 09:37:11;;;;;;;18.83;7.15;;;;;;;1.04;87.62;100923.44;4953193;29;20077;-63
2021/12/03 09:39:40;;;;;;;19.65;7.40;;;;;;;1.10;87.60;100926.63;4936674;29;20148;-62
2021/12/03 09:42:06;;;;;;;22.35;6.75;;;;;;;1.10;87.69;100901.94;4947995;28;20483;-62
2021/12/03 09:44:33;;;;;;;15.43;6.78;;;;;;;1.13;86.97;100900.97;4947077;29;20035;-62
2021/12/03 09:47:00;;;;;;;19.27;7.35;;;;;;;1.15;87.33;100904.28;4954881;29;20027;-62
2021/12/03 09:49:37;;;;;;;18.48;7.35;;;;;;;1.16;87.93;100900.84;4953739;29;20113;-63
2021/12/03 09:55:10;;;;;;;20.40;7.78;;;;;;;1.20;87.90;100892.13;4954797;29;20075;-63
2021/12/03 09:57:39;;;;;;;19.50;7.95;;;;;;;1.20;88.26;100887.03;4936488;29;20117;-63
2021/12/03 10:03:00;;;;;;;20.35;7.78;;;;;;;1.26;87.96;100876.56;4957511;28;20502;-63
2021/12/03 10:13:16;;;;;;;18.08;6.68;;;;;;;1.35;88.55;100871.06;4973295;28;20038;-63
2021/12/03 10:19:02;;;;;;;16.92;6.43;;;;;;;1.45;88.51;100866.41;4970211;28;20075;-64
2021/12/03 10:30:12;;;;;;;17.15;6.90;;;;;;;1.48;87.80;100826.19;4972619;28;20567;-63
2021/12/03 10:32:56;;;;;;;16.67;6.82;;;;;;;1.49;88.16;100817.66;4972722;28;20038;-62
2021/12/03 10:38:30;;;;;;;17.65;7.32;;;;;;;1.57;88.06;100810.47;4962960;28;20047;-63
2021/12/03 10:57:03;;;;;;;19.70;7.55;;;;;;;1.78;87.71;100772.06;4966445;28;20548;-63
2021/12/03 11:03:08;;;;;;;17.67;7.07;;;;;;;1.83;88.16;100754.75;4968800;28;20070;-64
2021/12/03 11:05:53;;;;;;;16.90;7.82;;;;;;;1.89;87.35;100757.00;4964332;28;20050;-63
2021/12/03 11:33:51;;;;;;;19.63;8.02;;;;;;;2.18;86.51;100703.63;4960102;28;20053;-64
2021/12/03 11:36:01;;;;;;;15.15;7.82;;;;;;;2.21;86.76;100698.38;4954870;28;20062;-62
2021/12/03 12:10:28;;;;;;;16.10;7.55;;;;;;;2.55;84.66;100657.41;4965346;28;20437;-63
2021/12/03 12:16:09;;;;;;;13.13;7.07;;;;;;;2.59;83.85;100642.72;4971504;28;20025;-63
2021/12/03 13:03:52;;;;;;;10.98;5.60;;;;;;;2.81;80.76;100561.31;4928565;28;20121;-64
2021/12/03 14:40:38;;;;;;;7.13;4.18;;;;;;;2.63;86.42;100486.28;4973001;28;20046;-64
2021/12/03 14:43:21;;;;;;;9.35;4.55;;;;;;;2.63;86.54;100493.97;4973579;28;20034;-63
2021/12/03 14:46:12;;;;;;;9.38;4.80;;;;;;;2.64;86.46;100490.53;4971320;28;20033;-64
2021/12/03 14:54:20;;;;;;;7.03;4.38;;;;;;;2.70;86.87;100501.34;4969149;28;20038;-63
2021/12/03 14:57:07;;;;;;;8.68;4.60;;;;;;;2.73;86.74;100508.84;4970754;28;20686;-63
2021/12/03 14:59:34;;;;;;;9.18;5.10;;;;;;;2.70;87.16;100501.34;4968100;28;20031;-64
2021/12/03 15:02:23;;;;;;;8.38;4.63;;;;;;;2.69;87.32;100507.34;4971255;28;20041;-63
2021/12/03 15:07:27;;;;;;;9.63;4.65;;;;;;;2.67;87.95;100492.91;4970126;28;20504;-63
2021/12/03 15:09:54;;;;;;;8.30;4.38;;;;;;;2.66;88.35;100486.13;4967980;28;20067;-64
2021/12/03 15:25:19;;;;;;;8.80;4.70;;;;;;;2.65;89.61;100474.25;4969097;28;20043;-63
2021/12/03 15:28:00;;;;;;;8.95;5.05;;;;;;;2.63;90.20;100467.53;4962108;28;20463;-63
2021/12/03 15:30:42;;;;;;;8.00;5.18;;;;;;;2.63;90.53;100465.81;4972260;28;20019;-63
2021/12/03 15:38:14;;;;;;;7.80;5.20;;;;;;;2.58;90.84;100447.34;4970721;28;20039;-63
2021/12/03 15:55:15;;;;;;;8.60;5.28;;;;;;;2.60;91.56;100450.63;4972178;28;20487;-63
2021/12/03 16:05:00;;;;;;;7.32;5.57;;;;;;;2.59;91.87;100438.75;4971961;28;20054;-63
2021/12/03 16:10:16;;;;;;;6.95;5.50;;;;;;;2.59;92.32;100433.63;4970633;28;20034;-63
2021/12/03 16:12:55;;;;;;;9.20;5.97;;;;;;;2.56;92.29;100423.53;4959034;28;20387;-63
2021/12/03 16:18:14;;;;;;;8.15;5.50;;;;;;;2.59;92.28;100423.38;4966561;28;20049;-64
2021/12/03 16:23:18;;;;;;;7.15;5.68;;;;;;;2.59;92.00;100415.69;4967276;28;20039;-63
2021/12/03 16:47:31;;;;;;;7.05;5.57;;;;;;;2.50;92.81;100371.84;4967130;28;20031;-64
2021/12/03 16:52:38;;;;;;;6.55;5.82;;;;;;;2.62;92.86;100397.59;4966412;28;20709;-64
2021/12/03 16:55:04;;;;;;;7.93;6.10;;;;;;;2.61;93.08;100395.94;4964800;28;20093;-63
2021/12/03 16:57:35;;;;;;;7.25;5.90;;;;;;;2.61;92.79;100401.06;4963294;28;20047;-64
2021/12/03 17:51:02;;;;;;;7.63;6.82;;;;;;;2.65;93.88;100300.16;4972131;28;20054;-63
2021/12/03 17:56:14;;;;;;;7.10;6.40;;;;;;;2.66;93.78;100296.66;4962064;28;20046;-63
2021/12/03 17:58:45;;;;;;;6.68;5.97;;;;;;;2.66;93.81;100296.66;4968061;28;20113;-63
2021/12/03 18:09:47;;;;;;;7.47;6.40;;;;;;;2.65;93.76;100289.91;4966885;28;20041;-63
2021/12/03 18:44:48;;;;;;;8.43;7.63;;;;;;;2.73;93.64;100273.28;4964755;28;20097;-64
2021/12/03 18:47:44;;;;;;;8.25;7.45;;;;;;;2.74;93.09;100287.72;4970089;28;20034;-64
2021/12/03 18:55:30;;;;;;;8.63;7.82;;;;;;;2.73;93.56;100274.09;4954230;28;20125;-63
2021/12/03 18:58:00;;;;;;;8.50;7.70;;;;;;;2.74;93.06;100283.41;4963608;28;20030;-63
2021/12/03 19:00:28;;;;;;;8.32;7.53;;;;;;;2.73;93.52;100281.78;4952064;28;20050;-63
2021/12/03 19:02:56;;;;;;;8.68;7.88;;;;;;;2.74;93.35;100287.72;4962907;28;20121;-64
2021/12/03 19:05:36;;;;;;;7.80;7.10;;;;;;;2.73;92.99;100280.94;4962249;28;20039;-67
2021/12/03 19:08:07;;;;;;;8.20;7.40;;;;;;;2.75;93.01;100279.13;4953482;28;20031;-64
2021/12/03 19:10:35;;;;;;;8.40;7.60;;;;;;;2.76;93.26;100286.72;4952052;28;20026;-63
2021/12/03 19:13:08;;;;;;;8.32;7.50;;;;;;;2.76;92.76;100280.78;4961709;28;20129;-63
2021/12/03 19:15:35;;;;;;;8.38;7.57;;;;;;;2.79;93.54;100280.59;4962791;28;20025;-63
2021/12/03 19:18:02;;;;;;;7.88;7.07;;;;;;;2.80;93.19;100282.22;4961673;28;21362;-63